← Previous May 28, 2024 3:38 AM

FTUS43 KDMX 260520
TAFFOD
TAF
KFOD 260520Z 2606/2706 11009KT P6SM VCTS BKN060CB OVC150
     FM261000 11006KT 6SM BR VCSH OVC030
     FM261400 03007KT P6SM OVC010
     FM261800 35008KT P6SM VCTS BKN035CB
     FM262300 36010KT P6SM SCT040=